Time;durP1;ratioP1;P1;durP2;ratioP2;P2;SDS_P1;SDS_P2;PMS_P1;PMS_P2;Temp;Humidity;BMP_temperature;BMP_pressure;BME280_temperature;BME280_humidity;BME280_pressure;Samples;Min_cycle;Max_cycle;Signal;HPM_P1;HPM_P2
2023/05/30 00:02:45;;;;;;;7.50;5.45;;;;;;;;;;10416025;28;20044;-60
2023/05/30 00:07:46;;;;;;;10.00;4.82;;;;;;;;;;10415097;28;20037;-59
2023/05/30 00:12:46;;;;;;;7.07;5.35;;;;;;;;;;10415141;28;20176;-59
2023/05/30 00:17:47;;;;;;;6.97;4.88;;;;;;;;;;10415383;28;20032;-59
2023/05/30 00:22:49;;;;;;;5.43;4.38;;;;;;;;;;10415647;28;20037;-59
2023/05/30 00:27:50;;;;;;;8.82;4.82;;;;;;;;;;10415639;28;20392;-59
2023/05/30 00:32:51;;;;;;;6.95;4.80;;;;;;;;;;10414500;28;20034;-61
2023/05/30 00:37:51;;;;;;;8.00;4.90;;;;;;;;;;10413191;28;20103;-59
2023/05/30 00:42:52;;;;;;;9.25;4.93;;;;;;;;;;10414955;28;20033;-59
2023/05/30 00:47:53;;;;;;;8.18;4.80;;;;;;;;;;10413545;28;20041;-59
2023/05/30 00:52:55;;;;;;;8.18;4.40;;;;;;;;;;10400127;28;20021;-60
2023/05/30 00:57:56;;;;;;;8.98;4.97;;;;;;;;;;10414363;28;20029;-60
2023/05/30 01:02:59;;;;;;;7.13;4.57;;;;;;;;;;10412423;28;20484;-59
2023/05/30 01:08:00;;;;;;;7.97;5.18;;;;;;;;;;10413326;28;20396;-59
2023/05/30 01:14:02;;;;;;;8.88;4.93;;;;;;;;;;10412137;28;20036;-59
2023/05/30 01:19:46;;;;;;;7.25;4.90;;;;;;;;;;10387203;28;20033;-59
2023/05/30 01:25:22;;;;;;;7.63;5.38;;;;;;;;;;10401657;28;20037;-60
2023/05/30 01:30:24;;;;;;;6.90;5.25;;;;;;;;;;10419900;28;20538;-59
2023/05/30 01:35:25;;;;;;;5.70;4.53;;;;;;;;;;10417578;28;20025;-61
2023/05/30 01:40:28;;;;;;;5.63;4.72;;;;;;;;;;10411078;28;20065;-59
2023/05/30 01:45:46;;;;;;;5.90;4.68;;;;;;;;;;10411360;28;20136;-59
2023/05/30 01:50:50;;;;;;;8.88;4.32;;;;;;;;;;10428380;28;20033;-60
2023/05/30 01:55:55;;;;;;;5.65;4.50;;;;;;;;;;10406462;28;20025;-59
2023/05/30 02:00:57;;;;;;;6.13;4.30;;;;;;;;;;10383383;28;20048;-59
2023/05/30 02:05:59;;;;;;;6.68;4.28;;;;;;;;;;10404682;28;20037;-59
2023/05/30 02:11:00;;;;;;;5.53;4.15;;;;;;;;;;10404076;28;20017;-60
2023/05/30 02:16:00;;;;;;;7.63;4.18;;;;;;;;;;10397898;28;20026;-59
2023/05/30 02:21:01;;;;;;;5.65;4.28;;;;;;;;;;10411108;28;20467;-60
2023/05/30 02:26:02;;;;;;;6.53;4.18;;;;;;;;;;10406596;28;20497;-59
2023/05/30 02:31:02;;;;;;;6.45;3.95;;;;;;;;;;10402978;28;20033;-60
2023/05/30 02:36:03;;;;;;;4.75;3.75;;;;;;;;;;10398023;28;20044;-59
2023/05/30 02:41:04;;;;;;;7.05;3.80;;;;;;;;;;10397481;28;20386;-59
2023/05/30 02:46:05;;;;;;;5.45;4.03;;;;;;;;;;10397034;28;20038;-59
2023/05/30 02:51:06;;;;;;;4.68;3.92;;;;;;;;;;10397875;28;20152;-58
2023/05/30 02:56:06;;;;;;;5.20;3.95;;;;;;;;;;10400306;28;20388;-60
2023/05/30 03:01:07;;;;;;;5.75;3.85;;;;;;;;;;10408650;28;20029;-59
2023/05/30 03:06:09;;;;;;;5.82;3.95;;;;;;;;;;10398816;28;20055;-60
2023/05/30 03:11:10;;;;;;;9.13;4.38;;;;;;;;;;10395962;28;20389;-60
2023/05/30 03:16:11;;;;;;;5.60;3.67;;;;;;;;;;10396950;28;20032;-60
2023/05/30 03:21:12;;;;;;;5.13;4.00;;;;;;;;;;10389108;28;20037;-59
2023/05/30 03:26:12;;;;;;;11.05;3.50;;;;;;;;;;10391205;28;20084;-60
2023/05/30 03:31:13;;;;;;;8.80;3.45;;;;;;;;;;10402335;28;20101;-61
2023/05/30 03:36:13;;;;;;;7.93;4.00;;;;;;;;;;10402030;28;20021;-62
2023/05/30 03:41:14;;;;;;;4.75;3.83;;;;;;;;;;10408585;28;20033;-59
2023/05/30 03:46:17;;;;;;;4.03;3.28;;;;;;;;;;10392971;28;20118;-59
2023/05/30 03:51:18;;;;;;;6.50;3.65;;;;;;;;;;10380549;28;20026;-60
2023/05/30 03:56:19;;;;;;;5.25;3.70;;;;;;;;;;10385158;28;20040;-60
2023/05/30 04:01:19;;;;;;;4.80;3.70;;;;;;;;;;10407746;28;20124;-59
2023/05/30 04:06:20;;;;;;;7.40;3.67;;;;;;;;;;10403291;28;20032;-59
2023/05/30 04:11:21;;;;;;;7.30;3.67;;;;;;;;;;10407722;28;20025;-59
2023/05/30 04:16:21;;;;;;;6.40;3.60;;;;;;;;;;10407175;28;20021;-59
2023/05/30 04:21:22;;;;;;;11.30;3.85;;;;;;;;;;10408643;28;20038;-59
2023/05/30 04:26:25;;;;;;;4.53;3.25;;;;;;;;;;10413121;28;20020;-59
2023/05/30 04:31:26;;;;;;;5.43;3.90;;;;;;;;;;10401081;28;20033;-58
2023/05/30 04:36:27;;;;;;;6.55;4.07;;;;;;;;;;10396820;28;20366;-59
2023/05/30 04:41:27;;;;;;;6.95;3.78;;;;;;;;;;10415373;28;20087;-60
2023/05/30 04:46:28;;;;;;;5.45;3.72;;;;;;;;;;10414473;28;20034;-59
2023/05/30 04:51:29;;;;;;;5.18;3.90;;;;;;;;;;10404725;28;20473;-59
2023/05/30 04:56:29;;;;;;;3.92;3.53;;;;;;;;;;10388773;28;20033;-59
2023/05/30 05:01:30;;;;;;;5.75;3.97;;;;;;;;;;10400577;28;20072;-59
2023/05/30 05:06:31;;;;;;;5.97;4.20;;;;;;;;;;10408893;28;20025;-59
2023/05/30 05:11:32;;;;;;;5.20;4.00;;;;;;;;;;10412570;28;20029;-59
2023/05/30 05:16:33;;;;;;;5.82;3.95;;;;;;;;;;10388046;28;20032;-59
2023/05/30 05:21:33;;;;;;;6.10;3.90;;;;;;;;;;10413207;28;20036;-61
2023/05/30 05:26:35;;;;;;;6.05;4.40;;;;;;;;;;10410938;28;20032;-59
2023/05/30 05:31:35;;;;;;;6.72;3.60;;;;;;;;;;10410937;28;20033;-60
2023/05/30 05:36:36;;;;;;;7.60;3.78;;;;;;;;;;10409883;28;20017;-60
2023/05/30 05:41:36;;;;;;;10.02;3.67;;;;;;;;;;10410191;28;20026;-60
2023/05/30 05:46:37;;;;;;;9.88;4.80;;;;;;;;;;10406066;28;20053;-60
2023/05/30 05:51:38;;;;;;;66.80;14.88;;;;;;;;;;10406122;28;20029;-60
2023/05/30 05:56:38;;;;;;;54.08;12.93;;;;;;;;;;10408791;28;20256;-61
2023/05/30 06:01:39;;;;;;;47.15;11.35;;;;;;;;;;10410287;28;20030;-61
2023/05/30 06:06:40;;;;;;;61.30;12.07;;;;;;;;;;10401775;28;20109;-60
2023/05/30 06:11:41;;;;;;;70.43;15.55;;;;;;;;;;10409777;28;20033;-60
2023/05/30 06:16:41;;;;;;;69.30;16.20;;;;;;;;;;10420286;28;20167;-60
2023/05/30 06:21:42;;;;;;;74.97;17.08;;;;;;;;;;10412475;28;20029;-60
2023/05/30 06:26:42;;;;;;;71.88;15.52;;;;;;;;;;10410932;28;20021;-60
2023/05/30 06:31:43;;;;;;;60.33;15.32;;;;;;;;;;10409076;28;20017;-60
2023/05/30 06:36:43;;;;;;;66.53;14.70;;;;;;;;;;10409440;28;20034;-60
2023/05/30 06:41:45;;;;;;;64.28;15.43;;;;;;;;;;10408984;28;20032;-60
2023/05/30 06:46:46;;;;;;;64.70;14.48;;;;;;;;;;10409773;28;20064;-60
2023/05/30 06:51:46;;;;;;;56.47;14.13;;;;;;;;;;10409867;28;20021;-60
2023/05/30 06:56:47;;;;;;;50.83;12.63;;;;;;;;;;10408008;28;20029;-60
2023/05/30 07:01:47;;;;;;;59.78;13.10;;;;;;;;;;10410144;28;20025;-60
2023/05/30 07:06:48;;;;;;;53.15;12.60;;;;;;;;;;10409389;28;20465;-60
2023/05/30 07:11:51;;;;;;;53.42;12.02;;;;;;;;;;10409215;28;20029;-60
2023/05/30 07:16:52;;;;;;;45.15;12.75;;;;;;;;;;10409941;28;20104;-60
2023/05/30 07:21:53;;;;;;;43.78;10.95;;;;;;;;;;10408503;28;20472;-60
2023/05/30 07:26:53;;;;;;;45.50;11.70;;;;;;;;;;10408564;28;20545;-60
2023/05/30 07:31:54;;;;;;;42.28;10.60;;;;;;;;;;10407958;28;20420;-60
2023/05/30 07:36:54;;;;;;;45.83;11.88;;;;;;;;;;10409273;28;20029;-60
2023/05/30 07:41:55;;;;;;;45.55;11.52;;;;;;;;;;10407529;28;20033;-60
2023/05/30 07:46:55;;;;;;;39.28;9.57;;;;;;;;;;10407784;28;20045;-60
2023/05/30 07:51:56;;;;;;;37.83;10.48;;;;;;;;;;10408342;28;20080;-60
2023/05/30 07:56:57;;;;;;;45.28;10.57;;;;;;;;;;10407361;28;20026;-60
2023/05/30 08:01:57;;;;;;;35.70;9.82;;;;;;;;;;10415368;28;20029;-60
2023/05/30 08:06:58;;;;;;;34.83;10.20;;;;;;;;;;10415955;28;20184;-60
2023/05/30 08:12:01;;;;;;;39.08;10.25;;;;;;;;;;10415445;28;20029;-60
2023/05/30 08:17:02;;;;;;;31.23;9.50;;;;;;;;;;10416519;28;20473;-60
2023/05/30 08:22:03;;;;;;;31.42;9.13;;;;;;;;;;10415299;28;20029;-60
2023/05/30 08:27:04;;;;;;;28.77;8.90;;;;;;;;;;10414586;28;20174;-60
2023/05/30 08:32:05;;;;;;;34.45;9.60;;;;;;;;;;10414301;28;20131;-60
2023/05/30 08:37:06;;;;;;;28.90;8.88;;;;;;;;;;10415723;28;20386;-60
2023/05/30 08:42:07;;;;;;;22.98;9.18;;;;;;;;;;10414606;28;20022;-61
2023/05/30 08:47:12;;;;;;;31.92;9.32;;;;;;;;;;10414661;28;20111;-60
2023/05/30 08:52:14;;;;;;;27.02;9.13;;;;;;;;;;10413551;28;20384;-60
2023/05/30 08:57:22;;;;;;;30.10;8.65;;;;;;;;;;10412711;28;20457;-60
2023/05/30 09:02:23;;;;;;;27.58;8.40;;;;;;;;;;10412073;28;20025;-60
2023/05/30 09:07:25;;;;;;;24.42;8.35;;;;;;;;;;10413363;28;20024;-60
2023/05/30 09:12:26;;;;;;;25.83;7.80;;;;;;;;;;10411479;28;20026;-60
2023/05/30 09:17:27;;;;;;;29.45;9.02;;;;;;;;;;10416550;28;20042;-60
2023/05/30 09:22:28;;;;;;;21.67;7.35;;;;;;;;;;10413196;28;20045;-60
2023/05/30 09:27:33;;;;;;;27.58;8.20;;;;;;;;;;10412509;28;20017;-60
2023/05/30 09:32:36;;;;;;;23.70;8.05;;;;;;;;;;10410840;28;20469;-60
2023/05/30 09:37:43;;;;;;;20.52;7.85;;;;;;;;;;10412406;28;20140;-60
2023/05/30 09:42:49;;;;;;;17.55;7.50;;;;;;;;;;10412432;28;20104;-60
2023/05/30 09:47:51;;;;;;;21.02;7.38;;;;;;;;;;10396675;28;20049;-60
2023/05/30 09:52:54;;;;;;;24.13;7.80;;;;;;;;;;10407559;28;20079;-60
2023/05/30 09:57:54;;;;;;;23.88;8.48;;;;;;;;;;10395405;28;20041;-60
2023/05/30 10:02:57;;;;;;;21.63;7.85;;;;;;;;;;10408480;28;20103;-60
2023/05/30 10:07:58;;;;;;;19.38;7.30;;;;;;;;;;10394914;28;20033;-60
2023/05/30 10:13:00;;;;;;;20.33;7.72;;;;;;;;;;10378876;28;20026;-60
2023/05/30 10:18:06;;;;;;;18.42;7.38;;;;;;;;;;10407235;28;20036;-60
2023/05/30 10:23:07;;;;;;;21.88;7.60;;;;;;;;;;10383870;28;20026;-60
2023/05/30 10:28:15;;;;;;;19.70;7.68;;;;;;;;;;10390866;28;20037;-60
2023/05/30 10:33:18;;;;;;;19.63;7.15;;;;;;;;;;10385400;28;20026;-60
2023/05/30 10:38:20;;;;;;;18.73;7.55;;;;;;;;;;10380351;28;20030;-60
2023/05/30 10:43:57;;;;;;;19.27;7.35;;;;;;;;;;10382471;28;20335;-60
2023/05/30 10:49:06;;;;;;;17.20;7.82;;;;;;;;;;10350984;28;20033;-60
2023/05/30 10:54:06;;;;;;;17.17;6.90;;;;;;;;;;10367674;28;20034;-60
2023/05/30 10:59:21;;;;;;;18.80;7.80;;;;;;;;;;10367503;28;20030;-60
2023/05/30 11:04:30;;;;;;;18.60;7.63;;;;;;;;;;10369409;28;20057;-60
2023/05/30 11:09:32;;;;;;;17.45;7.47;;;;;;;;;;10355796;28;20116;-60
2023/05/30 11:14:39;;;;;;;17.77;7.53;;;;;;;;;;10367883;28;20060;-60
2023/05/30 11:19:44;;;;;;;15.90;6.97;;;;;;;;;;10371646;28;20499;-60
2023/05/30 11:24:45;;;;;;;17.50;7.22;;;;;;;;;;10366555;28;20037;-60
2023/05/30 11:29:53;;;;;;;13.93;6.78;;;;;;;;;;10366533;28;20022;-60
2023/05/30 11:35:02;;;;;;;;;;;;;;;;;;10367924;28;20516;-61
2023/05/30 11:40:12;;;;;;;16.55;6.60;;;;;;;;;;10372324;28;19918;-60
2023/05/30 11:45:15;;;;;;;15.00;6.88;;;;;;;;;;10371126;28;20053;-60
2023/05/30 11:50:17;;;;;;;14.00;7.32;;;;;;;;;;10398595;28;20025;-60
2023/05/30 11:55:18;;;;;;;13.98;6.53;;;;;;;;;;10414951;28;20040;-60
2023/05/30 12:00:19;;;;;;;13.98;6.75;;;;;;;;;;10412042;28;20388;-60
2023/05/30 12:05:19;;;;;;;11.93;6.55;;;;;;;;;;10416118;28;20017;-60
2023/05/30 12:10:29;;;;;;;13.45;6.53;;;;;;;;;;10415175;28;20384;-60
2023/05/30 12:15:29;;;;;;;13.80;5.95;;;;;;;;;;10410670;28;20021;-60
2023/05/30 12:20:30;;;;;;;14.75;6.60;;;;;;;;;;10419347;28;20033;-60
2023/05/30 12:25:30;;;;;;;15.43;6.70;;;;;;;;;;10397771;28;20484;-60
2023/05/30 12:30:34;;;;;;;12.40;6.28;;;;;;;;;;10413254;28;20361;-60
2023/05/30 12:35:38;;;;;;;13.02;6.82;;;;;;;;;;10398674;28;20062;-60
2023/05/30 12:40:46;;;;;;;17.60;6.82;;;;;;;;;;10406215;28;20041;-60
2023/05/30 12:45:46;;;;;;;16.40;6.63;;;;;;;;;;10411363;28;20041;-60
2023/05/30 12:50:47;;;;;;;15.15;6.10;;;;;;;;;;10405331;28;20034;-60
2023/05/30 12:55:48;;;;;;;14.20;6.72;;;;;;;;;;10410987;28;20028;-60
2023/05/30 13:00:48;;;;;;;11.35;6.75;;;;;;;;;;10411011;28;20028;-60
2023/05/30 13:05:49;;;;;;;12.57;6.05;;;;;;;;;;10403058;28;20036;-60
2023/05/30 13:10:49;;;;;;;12.32;6.38;;;;;;;;;;10399954;28;20033;-60
2023/05/30 13:15:50;;;;;;;12.82;6.47;;;;;;;;;;10397433;28;20052;-60
2023/05/30 13:20:51;;;;;;;11.23;6.07;;;;;;;;;;10409217;28;20032;-60
2023/05/30 13:25:51;;;;;;;11.95;6.20;;;;;;;;;;10400891;28;20033;-60
2023/05/30 13:30:52;;;;;;;15.23;6.25;;;;;;;;;;10406276;28;20072;-60
2023/05/30 13:35:52;;;;;;;13.35;6.68;;;;;;;;;;10390161;28;20065;-60
2023/05/30 13:40:53;;;;;;;10.27;5.80;;;;;;;;;;10410191;28;20666;-60
2023/05/30 13:45:54;;;;;;;10.45;6.40;;;;;;;;;;10392699;28;20052;-60
2023/05/30 13:50:54;;;;;;;12.07;6.63;;;;;;;;;;10409938;28;20029;-60
2023/05/30 13:55:55;;;;;;;12.30;6.75;;;;;;;;;;10409327;28;20025;-60
2023/05/30 14:00:56;;;;;;;10.60;5.70;;;;;;;;;;10409854;28;20087;-60
2023/05/30 14:05:56;;;;;;;10.23;6.40;;;;;;;;;;10383984;28;20357;-60
2023/05/30 14:10:58;;;;;;;11.95;6.57;;;;;;;;;;10409281;28;20032;-60
2023/05/30 14:15:59;;;;;;;13.95;6.32;;;;;;;;;;10409247;28;20495;-60
2023/05/30 14:21:02;;;;;;;17.33;6.90;;;;;;;;;;10414365;28;20021;-60
2023/05/30 14:26:03;;;;;;;12.32;6.55;;;;;;;;;;10409497;28;20036;-60
2023/05/30 14:31:03;;;;;;;10.88;6.35;;;;;;;;;;10409973;28;20496;-60
2023/05/30 14:36:04;;;;;;;10.07;6.28;;;;;;;;;;10409249;28;20025;-60
2023/05/30 14:41:05;;;;;;;8.68;5.75;;;;;;;;;;10409648;28;20035;-60
2023/05/30 14:46:05;;;;;;;10.95;6.10;;;;;;;;;;10410344;28;20417;-60
2023/05/30 14:51:06;;;;;;;7.93;5.43;;;;;;;;;;10408696;28;20546;-60
2023/05/30 14:56:07;;;;;;;10.63;6.18;;;;;;;;;;10407357;28;20057;-60
2023/05/30 15:01:08;;;;;;;11.95;6.00;;;;;;;;;;10407248;28;20061;-60
2023/05/30 15:06:08;;;;;;;12.05;6.22;;;;;;;;;;10409524;28;20047;-60
2023/05/30 15:11:09;;;;;;;10.93;6.15;;;;;;;;;;10409270;28;20032;-60
2023/05/30 15:16:10;;;;;;;7.57;5.82;;;;;;;;;;10409562;28;20034;-60
2023/05/30 15:21:11;;;;;;;9.80;5.47;;;;;;;;;;10412480;28;20080;-60
2023/05/30 15:26:12;;;;;;;8.38;5.95;;;;;;;;;;10408410;28;20049;-60
2023/05/30 15:31:12;;;;;;;9.10;5.97;;;;;;;;;;10408086;28;20025;-60
2023/05/30 15:36:13;;;;;;;9.55;5.93;;;;;;;;;;10407273;28;20026;-60
2023/05/30 15:41:13;;;;;;;8.80;6.20;;;;;;;;;;10407937;28;20025;-60
2023/05/30 15:46:17;;;;;;;8.85;5.72;;;;;;;;;;10408072;28;20034;-60
2023/05/30 15:51:17;;;;;;;8.05;5.65;;;;;;;;;;10409929;28;20022;-60
2023/05/30 15:56:19;;;;;;;7.00;5.80;;;;;;;;;;10407362;28;20030;-60
2023/05/30 16:01:19;;;;;;;7.60;5.75;;;;;;;;;;10399603;28;20454;-60
2023/05/30 16:06:20;;;;;;;7.53;5.60;;;;;;;;;;10392936;28;20034;-60
2023/05/30 16:11:20;;;;;;;8.52;5.80;;;;;;;;;;10404778;28;20025;-60
2023/05/30 16:16:21;;;;;;;10.45;6.05;;;;;;;;;;10407522;28;20535;-60
2023/05/30 16:21:22;;;;;;;9.57;6.20;;;;;;;;;;10397955;28;20037;-60
2023/05/30 16:26:22;;;;;;;12.68;6.03;;;;;;;;;;10410421;28;20057;-60
2023/05/30 16:31:23;;;;;;;9.85;6.00;;;;;;;;;;10409788;28;20034;-62
2023/05/30 16:36:27;;;;;;;7.10;5.47;;;;;;;;;;10403703;28;20025;-61
2023/05/30 16:41:27;;;;;;;7.35;5.32;;;;;;;;;;10420096;28;20037;-61
2023/05/30 16:46:28;;;;;;;9.95;5.75;;;;;;;;;;10414093;28;20045;-61
2023/05/30 16:51:29;;;;;;;8.35;6.03;;;;;;;;;;10414024;28;20026;-61
2023/05/30 16:56:30;;;;;;;7.53;5.38;;;;;;;;;;10413865;28;20029;-61
2023/05/30 17:01:30;;;;;;;9.38;5.95;;;;;;;;;;10415440;28;20029;-61
2023/05/30 17:06:32;;;;;;;8.35;5.88;;;;;;;;;;10414558;28;20021;-61
2023/05/30 17:11:35;;;;;;;9.45;5.38;;;;;;;;;;10413671;28;20043;-61
2023/05/30 17:16:36;;;;;;;6.90;5.60;;;;;;;;;;10411571;28;20425;-61
2023/05/30 17:21:37;;;;;;;8.15;6.05;;;;;;;;;;10411552;28;20064;-61
2023/05/30 17:26:38;;;;;;;11.65;6.75;;;;;;;;;;10411942;28;20040;-61
2023/05/30 17:31:38;;;;;;;9.77;5.55;;;;;;;;;;10418360;28;20208;-61
2023/05/30 17:36:39;;;;;;;11.25;6.35;;;;;;;;;;10404794;28;20026;-61
2023/05/30 17:41:40;;;;;;;9.57;5.57;;;;;;;;;;10399479;28;20091;-61
2023/05/30 17:46:41;;;;;;;9.32;5.47;;;;;;;;;;10409504;28;20044;-61
2023/05/30 17:51:41;;;;;;;8.98;5.75;;;;;;;;;;10403729;28;20463;-61
2023/05/30 17:56:42;;;;;;;8.43;5.85;;;;;;;;;;10410553;28;20025;-61
2023/05/30 18:01:42;;;;;;;7.40;5.00;;;;;;;;;;10397969;28;20022;-61
2023/05/30 18:06:45;;;;;;;8.82;5.78;;;;;;;;;;10411323;28;20018;-61
2023/05/30 18:11:45;;;;;;;9.05;5.78;;;;;;;;;;10382287;28;20038;-61
2023/05/30 18:16:46;;;;;;;6.65;4.80;;;;;;;;;;10406580;28;20034;-61
2023/05/30 18:21:47;;;;;;;12.45;5.30;;;;;;;;;;10407902;28;20030;-61
2023/05/30 18:26:48;;;;;;;7.03;4.93;;;;;;;;;;10408339;28;20025;-62
2023/05/30 18:31:48;;;;;;;6.72;5.05;;;;;;;;;;10408320;28;20033;-61
2023/05/30 18:36:49;;;;;;;6.63;5.32;;;;;;;;;;10408300;28;20025;-62
2023/05/30 18:41:49;;;;;;;10.70;5.30;;;;;;;;;;10406454;28;20037;-62
2023/05/30 18:46:50;;;;;;;9.90;5.70;;;;;;;;;;10407887;28;20037;-61
2023/05/30 18:51:51;;;;;;;9.50;5.07;;;;;;;;;;10406630;28;20041;-61
2023/05/30 18:56:52;;;;;;;9.15;5.00;;;;;;;;;;10406895;28;20041;-61
2023/05/30 19:01:52;;;;;;;40.95;6.95;;;;;;;;;;10407798;28;20037;-61
2023/05/30 19:06:55;;;;;;;32.15;7.13;;;;;;;;;;10407304;28;20102;-62
2023/05/30 19:11:56;;;;;;;35.30;6.82;;;;;;;;;;10406663;28;20033;-61
2023/05/30 19:16:56;;;;;;;34.60;7.50;;;;;;;;;;10403003;28;20396;-61
2023/05/30 19:21:57;;;;;;;51.85;7.15;;;;;;;;;;10406269;28;20044;-59
2023/05/30 19:26:58;;;;;;;28.27;6.72;;;;;;;;;;10399380;28;20033;-63
2023/05/30 19:31:58;;;;;;;40.85;7.13;;;;;;;;;;10408588;28;20030;-62
2023/05/30 19:36:59;;;;;;;28.60;7.35;;;;;;;;;;10407390;28;20048;-60
2023/05/30 19:47:10;;;;;;;31.65;6.72;;;;;;;;;;10506488;28;20127;-57
2023/05/30 19:52:11;;;;;;;23.75;6.78;;;;;;;;;;10528767;28;20036;-57
2023/05/30 19:57:12;;;;;;;34.97;7.25;;;;;;;;;;10506862;28;20085;-56
2023/05/30 20:02:13;;;;;;;26.85;6.50;;;;;;;;;;10532027;28;20375;-57
2023/05/30 20:07:13;;;;;;;28.13;6.20;;;;;;;;;;10522185;28;20024;-57
2023/05/30 20:12:14;;;;;;;16.92;6.65;;;;;;;;;;10535868;28;20016;-57
2023/05/30 20:17:15;;;;;;;25.70;6.95;;;;;;;;;;10525079;28;20106;-57
2023/05/30 20:22:15;;;;;;;15.30;5.75;;;;;;;;;;10522893;28;20029;-57
2023/05/30 20:27:19;;;;;;;23.05;5.50;;;;;;;;;;10522000;28;20043;-56
2023/05/30 20:32:20;;;;;;;13.82;5.05;;;;;;;;;;10530302;28;20085;-56
2023/05/30 20:37:20;;;;;;;22.77;6.47;;;;;;;;;;10518667;28;20105;-57
2023/05/30 20:42:21;;;;;;;20.60;6.50;;;;;;;;;;10513649;28;20035;-56
2023/05/30 20:47:31;;;;;;;15.60;5.43;;;;;;;;;;10523102;28;20418;-57
2023/05/30 20:52:32;;;;;;;12.85;4.95;;;;;;;;;;10508565;28;20521;-57
2023/05/30 20:57:32;;;;;;;16.70;5.60;;;;;;;;;;10522670;28;20024;-58
2023/05/30 21:02:33;;;;;;;16.92;5.90;;;;;;;;;;10514353;28;20028;-57
2023/05/30 21:07:34;;;;;;;12.18;5.32;;;;;;;;;;10508299;28;20036;-56
2023/05/30 21:12:35;;;;;;;12.55;5.28;;;;;;;;;;10531335;28;20487;-57
2023/05/30 21:17:35;;;;;;;11.68;4.85;;;;;;;;;;10518562;28;20024;-57
2023/05/30 21:22:36;;;;;;;9.55;5.13;;;;;;;;;;10510038;28;20032;-57
2023/05/30 21:27:36;;;;;;;9.15;4.47;;;;;;;;;;10507976;28;20031;-57
2023/05/30 21:32:37;;;;;;;11.13;4.72;;;;;;;;;;10504082;28;20480;-58
2023/05/30 21:37:38;;;;;;;6.32;4.68;;;;;;;;;;10496272;28;20490;-57
2023/05/30 21:42:38;;;;;;;9.48;4.50;;;;;;;;;;10521751;28;20469;-57
2023/05/30 21:47:39;;;;;;;11.23;4.45;;;;;;;;;;10508975;28;20518;-56
2023/05/30 21:52:39;;;;;;;8.75;4.55;;;;;;;;;;10524413;28;20383;-61
2023/05/30 21:57:41;;;;;;;16.17;4.78;;;;;;;;;;10527315;28;20031;-61
2023/05/30 22:02:41;;;;;;;10.07;4.85;;;;;;;;;;10526200;28;20027;-60
2023/05/30 22:07:42;;;;;;;7.65;4.53;;;;;;;;;;10504434;28;20016;-61
2023/05/30 22:12:43;;;;;;;5.90;4.15;;;;;;;;;;10506763;28;20024;-61
2023/05/30 22:17:43;;;;;;;6.80;4.40;;;;;;;;;;10514974;28;20024;-60
2023/05/30 22:22:44;;;;;;;15.75;4.82;;;;;;;;;;10524034;28;20027;-61
2023/05/30 22:27:45;;;;;;;9.00;5.05;;;;;;;;;;10524236;28;20040;-62
2023/05/30 22:32:46;;;;;;;13.57;4.18;;;;;;;;;;10508977;28;20472;-61
2023/05/30 22:37:46;;;;;;;9.52;4.50;;;;;;;;;;10510374;28;20029;-61
2023/05/30 22:42:47;;;;;;;7.18;4.60;;;;;;;;;;10499933;28;20048;-61
2023/05/30 22:47:47;;;;;;;8.82;4.88;;;;;;;;;;10519791;28;20024;-61
2023/05/30 22:52:48;;;;;;;5.70;4.45;;;;;;;;;;10528574;28;21348;-62
2023/05/30 22:57:49;;;;;;;6.88;4.50;;;;;;;;;;10515516;28;20085;-62
2023/05/30 23:02:50;;;;;;;6.20;4.55;;;;;;;;;;10527864;28;20036;-62
2023/05/30 23:07:50;;;;;;;6.35;4.68;;;;;;;;;;10528973;28;20028;-60
2023/05/30 23:12:51;;;;;;;6.72;4.53;;;;;;;;;;10517281;28;20093;-60
2023/05/30 23:17:51;;;;;;;11.10;4.47;;;;;;;;;;10511059;28;20032;-61
2023/05/30 23:22:52;;;;;;;5.88;4.60;;;;;;;;;;10524367;28;20035;-60
2023/05/30 23:27:52;;;;;;;5.18;4.05;;;;;;;;;;10527458;28;20081;-60
2023/05/30 23:32:53;;;;;;;6.43;4.22;;;;;;;;;;10525243;28;20490;-60
2023/05/30 23:37:53;;;;;;;10.95;5.35;;;;;;;;;;10502548;28;20055;-60
2023/05/30 23:42:54;;;;;;;7.18;5.07;;;;;;;;;;10502128;28;20100;-60
2023/05/30 23:47:55;;;;;;;8.90;4.70;;;;;;;;;;10510903;28;20479;-61
2023/05/30 23:52:55;;;;;;;9.05;4.68;;;;;;;;;;10518487;28;20463;-60
2023/05/30 23:57:56;;;;;;;6.45;4.43;;;;;;;;;;10527958;28;20127;-60
